ダルエスサラーム の空港の天気 - METARとTAF

ジュリウス・ニエレレ国際空港(ダルエスサラーム) ( HTDA / DAR ) - タンザニア ダルエスサラーム
飛行場実況気象(Metar)
観測時間05/27 00:00 EAT (05/26 21:00 UTC)
風向・風速静穏 0m/s
視程10km以上
天気現象
少しの雲 雲底高度 370m
気温25℃
湿度89%
気圧1015hPa
METARHTDA 262100Z 00000KT 9999 FEW012 25/23 Q1015 NOSIG
過去の天気等 Google飛行場航空写真 Wunderground天気予報

過去48時間のMETAR

飛行場予報(TAF)
発表時間: 5/26 20:00 EAT (5/26 17:00 UTC)
予報対象時間: 26日21時 EAT ~ 28日3時 EAT
風向・風速南東 3m/s
視程10km以上
全天の4割程度の雲 雲底高度 490m
27日10時 EAT ~ 27日13時 EAT に徐々に
風向・風速南 8m/s
全天の8割程度の雲 雲底高度 670m
HTDA 261700Z 2618/2724 14005KT 9999 SCT016
BECMG 2707/2710 17015KT BKN022